Time;durP1;ratioP1;P1;durP2;ratioP2;P2;SDS_P1;SDS_P2;PMS_P1;PMS_P2;Temp;Humidity;BMP_temperature;BMP_pressure;BME280_temperature;BME280_humidity;BME280_pressure;Samples;Min_cycle;Max_cycle;Signal;HPM_P1;HPM_P2
2023/10/06 00:03:05;;;;;;;11.68;3.00;;;;;;;-143.29;100.00;62188.47;5053857;28;20037;-90
2023/10/06 00:05:32;;;;;;;15.65;2.63;;;;;;;-143.29;100.00;62188.47;5051311;28;20025;-91
2023/10/06 00:07:58;;;;;;;9.50;2.90;;;;;;;-143.29;100.00;62188.47;5058260;28;20020;-90
2023/10/06 00:10:27;;;;;;;8.63;2.80;;;;;;;-143.29;100.00;62188.47;5056491;28;20502;-90
2023/10/06 00:12:59;;;;;;;10.30;3.03;;;;;;;-143.29;100.00;62188.47;5050496;28;20036;-90
2023/10/06 00:15:40;;;;;;;11.13;3.03;;;;;;;-143.29;100.00;62188.47;5051052;28;20036;-90
2023/10/06 00:18:16;;;;;;;7.38;2.70;;;;;;;-143.29;100.00;62188.47;5033501;28;20021;-90
2023/10/06 00:20:48;;;;;;;15.70;3.50;;;;;;;-143.29;100.00;62188.47;5032997;28;20586;-90
2023/10/06 00:23:21;;;;;;;8.80;2.67;;;;;;;-143.29;100.00;62188.47;5051062;28;20021;-90
2023/10/06 00:25:51;;;;;;;12.80;3.30;;;;;;;-143.29;100.00;62188.47;5055866;28;20038;-91
2023/10/06 00:28:19;;;;;;;12.82;3.28;;;;;;;-143.29;100.00;62188.47;5032468;28;20105;-90
2023/10/06 00:30:58;;;;;;;13.57;4.20;;;;;;;-143.29;100.00;62188.47;5053105;28;20059;-91
2023/10/06 00:33:32;;;;;;;17.10;3.42;;;;;;;-143.29;100.00;62188.47;5036944;28;20475;-91
2023/10/06 00:36:12;;;;;;;12.75;3.22;;;;;;;-143.29;100.00;62188.47;5036797;28;20052;-91
2023/10/06 00:38:51;;;;;;;7.90;2.88;;;;;;;-143.29;100.00;62188.47;5036880;28;20021;-90
2023/10/06 00:41:17;;;;;;;7.70;3.05;;;;;;;-143.29;100.00;62188.47;5074715;28;20595;-90
2023/10/06 00:43:43;;;;;;;11.38;2.90;;;;;;;-143.29;100.00;62188.47;5059771;28;20475;-91
2023/10/06 00:46:13;;;;;;;10.38;2.70;;;;;;;-143.29;100.00;62188.47;5054147;28;20033;-91
2023/10/06 00:48:40;;;;;;;9.05;3.35;;;;;;;-143.29;100.00;62188.47;5054638;28;20021;-90
2023/10/06 00:51:12;;;;;;;9.57;2.45;;;;;;;-143.29;100.00;62188.47;5036498;28;20025;-90
2023/10/06 00:53:39;;;;;;;11.45;3.60;;;;;;;-143.29;100.00;62188.47;5053826;28;20028;-90
2023/10/06 00:56:14;;;;;;;9.32;3.03;;;;;;;-143.29;100.00;62188.47;5054336;28;20032;-90
2023/10/06 00:58:41;;;;;;;6.22;2.72;;;;;;;-143.29;100.00;62188.47;5054338;28;20021;-90
2023/10/06 01:01:13;;;;;;;9.63;2.95;;;;;;;-143.29;100.00;62188.47;5035490;28;20028;-90
2023/10/06 01:03:42;;;;;;;16.60;3.75;;;;;;;-143.29;100.00;62188.47;5053921;28;20036;-91
2023/10/06 01:06:12;;;;;;;6.43;2.88;;;;;;;-143.29;100.00;62188.47;5036236;28;20112;-92
2023/10/06 01:08:52;;;;;;;7.13;3.00;;;;;;;-143.29;100.00;62188.47;5058398;28;20024;-91
2023/10/06 01:11:20;;;;;;;13.80;3.08;;;;;;;-143.29;100.00;62188.47;5073977;28;20052;-91
2023/10/06 01:13:55;;;;;;;12.35;2.50;;;;;;;-143.29;100.00;62188.47;5074045;28;20025;-91
2023/10/06 01:16:34;;;;;;;16.45;3.10;;;;;;;-143.29;100.00;62188.47;5038635;28;20036;-92
2023/10/06 01:21:55;;;;;;;11.45;2.90;;;;;;;-143.29;100.00;62188.47;5054122;28;20044;-91
2023/10/06 01:24:25;;;;;;;8.02;2.78;;;;;;;-143.29;100.00;62188.47;5053222;28;20025;-91
2023/10/06 01:26:58;;;;;;;11.10;2.75;;;;;;;-143.29;100.00;62188.47;5035506;28;20024;-90
2023/10/06 01:29:28;;;;;;;8.80;2.80;;;;;;;-143.29;100.00;62188.47;5035851;28;20028;-91
2023/10/06 01:31:54;;;;;;;8.30;2.67;;;;;;;-143.29;100.00;62188.47;5035830;28;20125;-90
2023/10/06 01:34:20;;;;;;;6.40;2.15;;;;;;;-143.29;100.00;62188.47;5052842;28;20052;-91
2023/10/06 01:36:54;;;;;;;13.23;2.63;;;;;;;-143.29;100.00;62188.47;5052860;28;20044;-91
2023/10/06 01:39:23;;;;;;;7.70;2.60;;;;;;;-143.29;100.00;62188.47;5053081;28;20025;-91
2023/10/06 01:41:49;;;;;;;10.73;2.72;;;;;;;-143.29;100.00;62188.47;5053247;28;20104;-90
2023/10/06 01:44:15;;;;;;;10.27;2.65;;;;;;;-143.29;100.00;62188.47;5053522;28;20128;-91
2023/10/06 01:46:41;;;;;;;7.43;2.33;;;;;;;-143.29;100.00;62188.47;5035443;28;20035;-90
2023/10/06 01:49:10;;;;;;;14.02;3.00;;;;;;;-143.29;100.00;62188.47;5053416;28;20035;-90
2023/10/06 01:51:38;;;;;;;6.35;2.53;;;;;;;-143.29;100.00;62188.47;5051670;28;20505;-90
2023/10/06 01:54:12;;;;;;;6.80;2.03;;;;;;;-143.29;100.00;62188.47;5048874;28;20029;-90
2023/10/06 01:56:40;;;;;;;8.85;2.85;;;;;;;-143.29;100.00;62188.47;5073310;28;20028;-91
2023/10/06 01:59:05;;;;;;;7.68;2.45;;;;;;;-143.29;100.00;62188.47;5055304;28;20377;-91
2023/10/06 02:01:31;;;;;;;6.38;2.65;;;;;;;-143.29;100.00;62188.47;5073176;28;20103;-90
2023/10/06 02:03:56;;;;;;;4.80;2.15;;;;;;;-143.29;100.00;62188.47;5073010;28;20486;-91
2023/10/06 02:06:23;;;;;;;11.40;2.67;;;;;;;-143.29;100.00;62188.47;5053719;28;20090;-91
2023/10/06 02:08:50;;;;;;;10.23;2.53;;;;;;;-143.29;100.00;62188.47;5066317;28;20115;-91
2023/10/06 02:11:16;;;;;;;10.70;2.60;;;;;;;-143.29;100.00;62188.47;5053986;28;20071;-91
2023/10/06 02:13:42;;;;;;;8.68;2.78;;;;;;;-143.29;100.00;62188.47;5072780;28;20027;-91
2023/10/06 02:16:08;;;;;;;8.52;2.08;;;;;;;-143.29;100.00;62188.47;5072635;28;20028;-90
2023/10/06 02:18:37;;;;;;;8.73;2.38;;;;;;;-143.29;100.00;62188.47;5054965;28;20020;-90
2023/10/06 02:21:11;;;;;;;11.93;2.67;;;;;;;-143.29;100.00;62188.47;5054883;28;20063;-91
2023/10/06 02:23:37;;;;;;;6.88;2.53;;;;;;;-143.29;100.00;62188.47;5036384;28;20036;-91
2023/10/06 02:26:07;;;;;;;14.13;3.42;;;;;;;-143.29;100.00;62188.47;5034759;28;20033;-91
2023/10/06 02:28:33;;;;;;;12.98;2.95;;;;;;;-143.29;100.00;62188.47;5052510;28;20025;-91
2023/10/06 02:31:04;;;;;;;8.77;2.95;;;;;;;-143.29;100.00;62188.47;5052667;28;20115;-91
2023/10/06 02:33:30;;;;;;;20.03;4.00;;;;;;;-143.29;100.00;62188.47;5034701;28;20024;-91
2023/10/06 02:35:59;;;;;;;12.15;3.40;;;;;;;-143.29;100.00;62188.47;5052419;28;20101;-91
2023/10/06 02:38:34;;;;;;;13.45;3.85;;;;;;;-143.29;100.00;62188.47;5034289;28;20111;-91
2023/10/06 02:41:00;;;;;;;10.05;3.15;;;;;;;-143.29;100.00;62188.47;5050565;28;20037;-91
2023/10/06 02:43:28;;;;;;;8.27;2.97;;;;;;;-143.29;100.00;62188.47;5033892;28;20024;-91
2023/10/06 02:45:56;;;;;;;11.02;3.05;;;;;;;-143.29;100.00;62188.47;5034378;28;20025;-91
2023/10/06 02:48:23;;;;;;;9.23;4.15;;;;;;;-143.29;100.00;62188.47;5052279;28;20017;-91
2023/10/06 02:50:55;;;;;;;16.65;3.55;;;;;;;-143.29;100.00;62188.47;5051680;28;20025;-91
2023/10/06 02:53:23;;;;;;;;;;;;;;;-143.29;100.00;62188.47;5055572;28;20163;-90
2023/10/06 02:55:55;;;;;;;10.15;3.20;;;;;;;-143.29;100.00;62188.47;5055629;28;19923;-92
2023/10/06 02:58:30;;;;;;;12.30;3.50;;;;;;;-143.29;100.00;62188.47;5050968;28;20033;-91
2023/10/06 03:00:56;;;;;;;11.02;3.58;;;;;;;-143.29;100.00;62188.47;5052053;28;20467;-91
2023/10/06 03:03:29;;;;;;;7.10;3.42;;;;;;;-143.29;100.00;62188.47;5034108;28;20034;-91
2023/10/06 03:05:56;;;;;;;16.33;4.20;;;;;;;-143.29;100.00;62188.47;5034068;28;20021;-90
2023/10/06 03:08:22;;;;;;;10.98;3.63;;;;;;;-143.29;100.00;62188.47;5033134;28;20033;-91
2023/10/06 03:10:48;;;;;;;8.05;3.17;;;;;;;-143.29;100.00;62188.47;5041933;28;20044;-91
2023/10/06 03:13:31;;;;;;;8.50;2.67;;;;;;;-143.29;100.00;62188.47;5054451;28;20028;-91
2023/10/06 03:15:57;;;;;;;13.52;3.67;;;;;;;-143.29;100.00;62188.47;5032753;28;20453;-91
2023/10/06 03:18:22;;;;;;;10.93;3.25;;;;;;;-143.29;100.00;62188.47;5033859;28;20029;-91
2023/10/06 03:20:48;;;;;;;13.45;3.60;;;;;;;-143.29;100.00;62188.47;5033703;28;20398;-91
2023/10/06 03:23:26;;;;;;;9.30;3.08;;;;;;;-143.29;100.00;62188.47;5051735;28;20095;-91
2023/10/06 03:25:56;;;;;;;12.93;2.60;;;;;;;-143.29;100.00;62188.47;5067757;28;20478;-91
2023/10/06 03:28:26;;;;;;;7.60;2.67;;;;;;;-143.29;100.00;62188.47;5071842;28;20016;-90
2023/10/06 03:30:52;;;;;;;14.52;3.85;;;;;;;-143.29;100.00;62188.47;5051789;28;20029;-91
2023/10/06 03:33:19;;;;;;;7.18;3.35;;;;;;;-143.29;100.00;62188.47;5033889;28;20021;-91
2023/10/06 03:35:54;;;;;;;9.25;2.85;;;;;;;-143.29;100.00;62188.47;5033562;28;20486;-91
2023/10/06 03:40:58;;;;;;;15.32;4.13;;;;;;;-143.29;100.00;62188.47;5051644;28;20009;-91
2023/10/06 03:46:11;;;;;;;15.57;4.35;;;;;;;-143.29;100.00;62188.47;5050863;28;20115;-91
2023/10/06 03:48:38;;;;;;;8.70;3.00;;;;;;;-143.29;100.00;62188.47;5032847;28;20442;-90
2023/10/06 03:51:05;;;;;;;8.65;2.75;;;;;;;-143.29;100.00;62188.47;5051539;28;20028;-90
2023/10/06 03:53:31;;;;;;;12.65;3.10;;;;;;;-143.29;100.00;62188.47;5051454;28;20104;-90
2023/10/06 03:55:57;;;;;;;17.35;3.70;;;;;;;-143.29;100.00;62188.47;5051311;28;20451;-90
2023/10/06 03:58:29;;;;;;;8.98;3.22;;;;;;;-143.29;100.00;62188.47;5051522;28;20506;-90
2023/10/06 04:00:55;;;;;;;5.72;2.90;;;;;;;-143.29;100.00;62188.47;5031902;28;20032;-90
2023/10/06 04:03:21;;;;;;;7.97;3.20;;;;;;;-143.29;100.00;62188.47;5051320;28;20448;-91
2023/10/06 04:05:51;;;;;;;8.52;3.08;;;;;;;-143.29;100.00;62188.47;5037250;28;20380;-91
2023/10/06 04:08:23;;;;;;;7.35;3.33;;;;;;;-143.29;100.00;62188.47;5055295;28;20048;-91
2023/10/06 04:10:51;;;;;;;10.45;3.13;;;;;;;-143.29;100.00;62188.47;5054973;28;20128;-91
2023/10/06 04:13:17;;;;;;;17.50;3.70;;;;;;;-143.29;100.00;62188.47;5037334;28;20020;-90
2023/10/06 04:15:46;;;;;;;13.43;3.40;;;;;;;-143.29;100.00;62188.47;5041238;28;20027;-90
2023/10/06 04:18:11;;;;;;;10.68;2.90;;;;;;;-143.29;100.00;62188.47;5057399;28;20025;-90
2023/10/06 04:20:36;;;;;;;11.13;2.97;;;;;;;-143.29;100.00;62188.47;5064655;28;20036;-91
2023/10/06 04:23:02;;;;;;;14.70;4.13;;;;;;;-143.29;100.00;62188.47;5036956;28;20440;-90
2023/10/06 04:25:28;;;;;;;8.98;2.97;;;;;;;-143.29;100.00;62188.47;5054999;28;20028;-91
2023/10/06 04:27:53;;;;;;;10.55;2.58;;;;;;;-143.29;100.00;62188.47;5054888;28;20067;-90
2023/10/06 04:30:19;;;;;;;8.23;2.50;;;;;;;-143.29;100.00;62188.47;5036109;28;20032;-90
2023/10/06 04:32:44;;;;;;;10.88;2.90;;;;;;;-143.29;100.00;62188.47;5054874;28;20482;-91
2023/10/06 04:35:19;;;;;;;11.38;3.22;;;;;;;-143.29;100.00;62188.47;5054844;28;20386;-91
2023/10/06 04:37:48;;;;;;;7.95;2.83;;;;;;;-143.29;100.00;62188.47;5036903;28;20024;-90
2023/10/06 04:40:18;;;;;;;11.70;3.45;;;;;;;-143.29;100.00;62188.47;5052979;28;20485;-91
2023/10/06 04:42:45;;;;;;;7.97;3.25;;;;;;;-143.29;100.00;62188.47;5035717;28;20445;-90
2023/10/06 04:45:12;;;;;;;11.13;3.17;;;;;;;-143.29;100.00;62188.47;5041908;28;20033;-91
2023/10/06 04:47:40;;;;;;;11.18;3.05;;;;;;;-143.29;100.00;62188.47;5073835;28;20029;-91
2023/10/06 04:50:09;;;;;;;10.93;3.17;;;;;;;-143.29;100.00;62188.47;5062770;28;20439;-91
2023/10/06 04:52:36;;;;;;;9.00;2.50;;;;;;;-143.29;100.00;62188.47;5036046;28;20022;-91
2023/10/06 04:55:03;;;;;;;6.60;2.00;;;;;;;-143.29;100.00;62188.47;5035843;28;20060;-92
2023/10/06 04:57:28;;;;;;;7.43;2.53;;;;;;;-143.29;100.00;62188.47;5053864;28;20029;-91
2023/10/06 04:59:54;;;;;;;7.38;3.38;;;;;;;-143.29;100.00;62188.47;5054238;28;20020;-91
2023/10/06 05:02:22;;;;;;;11.45;2.97;;;;;;;-143.29;100.00;62188.47;5053736;28;20499;-91
2023/10/06 05:04:47;;;;;;;9.70;3.05;;;;;;;-143.29;100.00;62188.47;5047836;28;20021;-91
2023/10/06 05:07:12;;;;;;;14.30;3.50;;;;;;;-143.29;100.00;62188.47;5056201;28;20028;-92
2023/10/06 05:09:40;;;;;;;12.15;3.33;;;;;;;-143.29;100.00;62188.47;5056269;28;20441;-91
2023/10/06 05:12:05;;;;;;;7.55;2.97;;;;;;;-143.29;100.00;62188.47;5061245;28;20021;-91
2023/10/06 05:14:34;;;;;;;10.50;3.25;;;;;;;-143.29;100.00;62188.47;5036218;28;20025;-90
2023/10/06 05:16:59;;;;;;;8.23;2.53;;;;;;;-143.29;100.00;62188.47;5052988;28;20033;-90
2023/10/06 05:19:26;;;;;;;11.85;3.70;;;;;;;-143.29;100.00;62188.47;5064582;28;20101;-91
2023/10/06 05:21:53;;;;;;;11.77;3.47;;;;;;;-143.29;100.00;62188.47;5045013;28;20028;-91
2023/10/06 05:24:18;;;;;;;10.93;3.40;;;;;;;-143.29;100.00;62188.47;5053676;28;20263;-91
2023/10/06 05:26:44;;;;;;;15.90;3.22;;;;;;;-143.29;100.00;62188.47;5053329;28;20279;-91
2023/10/06 05:29:14;;;;;;;11.90;3.45;;;;;;;-143.29;100.00;62188.47;5053472;28;20029;-91
2023/10/06 05:31:42;;;;;;;8.68;3.05;;;;;;;-143.29;100.00;62188.47;5050176;28;20465;-90
2023/10/06 05:34:08;;;;;;;13.35;2.92;;;;;;;-143.29;100.00;62188.47;5035983;28;20463;-90
2023/10/06 05:36:35;;;;;;;11.70;3.95;;;;;;;-143.29;100.00;62188.47;5052758;28;20033;-90
2023/10/06 05:39:01;;;;;;;7.78;2.90;;;;;;;-143.29;100.00;62188.47;5053096;28;20387;-90
2023/10/06 05:41:33;;;;;;;10.18;3.88;;;;;;;-143.29;100.00;62188.47;5053283;28;20498;-91
2023/10/06 05:43:58;;;;;;;6.15;2.45;;;;;;;-143.29;100.00;62188.47;5053736;28;20025;-90
2023/10/06 05:46:27;;;;;;;12.35;3.85;;;;;;;-143.29;100.00;62188.47;5052380;28;20027;-91
2023/10/06 05:48:52;;;;;;;5.32;2.97;;;;;;;-143.29;100.00;62188.47;5053398;28;20183;-91
2023/10/06 05:51:21;;;;;;;10.50;3.13;;;;;;;-143.29;100.00;62188.47;5056672;28;20274;-91
2023/10/06 05:53:48;;;;;;;10.50;3.80;;;;;;;-143.29;100.00;62188.47;5034811;28;20115;-91
2023/10/06 05:56:15;;;;;;;8.50;3.17;;;;;;;-143.29;100.00;62188.47;5053626;28;20075;-92
2023/10/06 05:58:43;;;;;;;7.45;3.05;;;;;;;-143.29;100.00;62188.47;5051351;28;20040;-93
2023/10/06 06:01:18;;;;;;;15.13;3.50;;;;;;;-143.29;100.00;62188.47;5053507;28;20024;-92
2023/10/06 06:03:47;;;;;;;11.27;3.20;;;;;;;-143.29;100.00;62188.47;5035374;28;20120;-94
2023/10/06 06:06:21;;;;;;;8.93;3.28;;;;;;;-143.29;100.00;62188.47;5054063;28;20039;-93
2023/10/06 06:08:47;;;;;;;9.43;3.22;;;;;;;-143.29;100.00;62188.47;5052930;28;20032;-93
2023/10/06 06:11:13;;;;;;;10.32;3.55;;;;;;;-143.29;100.00;62188.47;5034762;28;20038;-92
2023/10/06 06:13:39;;;;;;;8.02;3.17;;;;;;;-143.29;100.00;62188.47;5053082;28;20032;-93
2023/10/06 06:16:08;;;;;;;12.40;3.15;;;;;;;-143.29;100.00;62188.47;5052889;28;20037;-94
2023/10/06 06:18:34;;;;;;;10.10;3.40;;;;;;;-143.29;100.00;62188.47;5052638;28;20082;-93
2023/10/06 06:21:03;;;;;;;14.45;3.63;;;;;;;-143.29;100.00;62188.47;5070576;28;20033;-92
2023/10/06 06:23:33;;;;;;;14.73;4.75;;;;;;;-143.29;100.00;62188.47;5048232;28;20625;-93
2023/10/06 06:25:59;;;;;;;5.03;3.17;;;;;;;-143.29;100.00;62188.47;5033561;28;20119;-93
2023/10/06 06:28:25;;;;;;;10.38;3.40;;;;;;;-143.29;100.00;62188.47;5051518;28;20386;-94
2023/10/06 06:30:50;;;;;;;10.10;3.67;;;;;;;-143.29;100.00;62188.47;5034880;28;20479;-93
2023/10/06 06:33:22;;;;;;;7.55;3.53;;;;;;;-143.29;100.00;62188.47;5052414;28;20029;-92
2023/10/06 06:35:48;;;;;;;7.55;3.55;;;;;;;-143.29;100.00;62188.47;5070239;28;20123;-94
2023/10/06 06:38:13;;;;;;;8.63;3.40;;;;;;;-143.29;100.00;62188.47;5052989;28;20033;-94
2023/10/06 06:40:39;;;;;;;9.15;3.30;;;;;;;-143.29;100.00;62188.47;5052085;28;20028;-92
2023/10/06 06:43:11;;;;;;;10.10;3.58;;;;;;;-143.29;100.00;62188.47;5052175;28;20029;-91
2023/10/06 06:45:39;;;;;;;19.20;5.00;;;;;;;-143.29;100.00;62188.47;5034383;28;20409;-93
2023/10/06 06:48:16;;;;;;;9.05;3.42;;;;;;;-143.29;100.00;62188.47;5053376;28;20111;-96
2023/10/06 06:50:43;;;;;;;10.60;3.70;;;;;;;-143.29;100.00;62188.47;5054562;28;20032;-94
2023/10/06 06:53:09;;;;;;;14.68;4.85;;;;;;;-143.29;100.00;62188.47;5050557;28;20086;-93
2023/10/06 06:55:34;;;;;;;7.35;2.70;;;;;;;-143.29;100.00;62188.47;5033833;28;20071;-93
2023/10/06 06:58:05;;;;;;;10.90;3.67;;;;;;;-143.29;100.00;62188.47;5052252;28;20029;-94
2023/10/06 07:00:31;;;;;;;11.38;2.85;;;;;;;-143.29;100.00;62188.47;5051772;28;20029;-93
2023/10/06 07:02:56;;;;;;;5.63;2.63;;;;;;;-143.29;100.00;62188.47;5050929;28;20033;-92
2023/10/06 07:05:22;;;;;;;5.90;3.72;;;;;;;-143.29;100.00;62188.47;5048199;28;20089;-91
2023/10/06 07:07:52;;;;;;;7.25;3.08;;;;;;;-143.29;100.00;62188.47;5072176;28;20062;-94
2023/10/06 07:10:20;;;;;;;6.30;3.08;;;;;;;-143.29;100.00;62188.47;5053406;28;20024;-93
2023/10/06 07:12:49;;;;;;;5.50;2.45;;;;;;;-143.29;100.00;62188.47;5052513;28;20078;-92
2023/10/06 07:15:19;;;;;;;10.45;2.88;;;;;;;-143.29;100.00;62188.47;5051176;28;20486;-92
2023/10/06 07:17:50;;;;;;;8.85;3.58;;;;;;;-143.29;100.00;62188.47;5033999;28;20029;-95
2023/10/06 07:20:18;;;;;;;7.93;3.30;;;;;;;-143.29;100.00;62188.47;5047725;28;20024;-93
2023/10/06 07:22:47;;;;;;;6.80;3.08;;;;;;;-143.29;100.00;62188.47;5054274;28;20051;-94
2023/10/06 07:25:15;;;;;;;7.50;2.58;;;;;;;-143.29;100.00;62188.47;5035809;28;20024;-93
2023/10/06 07:27:43;;;;;;;11.23;3.13;;;;;;;-143.29;100.00;62188.47;5036357;28;20033;-93
2023/10/06 07:30:10;;;;;;;9.25;2.92;;;;;;;-143.29;100.00;62188.47;5051729;28;20032;-94
2023/10/06 07:32:41;;;;;;;7.93;2.80;;;;;;;-143.29;100.00;62188.47;5033468;28;20036;-92
2023/10/06 07:35:17;;;;;;;14.82;3.47;;;;;;;-143.29;100.00;62188.47;5051417;28;20025;-93
2023/10/06 07:37:47;;;;;;;7.85;3.13;;;;;;;-143.29;100.00;62188.47;5033514;28;20025;-93
2023/10/06 07:40:18;;;;;;;5.72;2.50;;;;;;;-143.29;100.00;62188.47;5056270;28;20371;-91
2023/10/06 07:42:45;;;;;;;10.60;2.20;;;;;;;-143.29;100.00;62188.47;5057481;28;20025;-95
2023/10/06 07:45:12;;;;;;;12.32;3.20;;;;;;;-143.29;100.00;62188.47;5039225;28;20122;-91
2023/10/06 07:47:39;;;;;;;8.43;2.40;;;;;;;-143.29;100.00;62188.47;5039780;28;20390;-92
2023/10/06 07:50:06;;;;;;;11.43;2.47;;;;;;;-143.29;100.00;62188.47;5058125;28;20036;-92
2023/10/06 07:52:35;;;;;;;9.07;2.38;;;;;;;-143.29;100.00;62188.47;5057650;28;20479;-91
2023/10/06 07:55:04;;;;;;;8.18;2.08;;;;;;;-143.29;100.00;62188.47;5045822;28;20071;-90
2023/10/06 07:57:33;;;;;;;8.10;2.65;;;;;;;-143.29;100.00;62188.47;5057556;28;20020;-89
2023/10/06 08:00:06;;;;;;;8.77;2.17;;;;;;;-143.29;100.00;62188.47;5074578;28;20019;-88
2023/10/06 08:02:39;;;;;;;8.63;2.67;;;;;;;-143.29;100.00;62188.47;5057539;28;20021;-92
2023/10/06 08:05:11;;;;;;;7.47;2.40;;;;;;;-143.29;100.00;62188.47;5057795;28;20027;-95
2023/10/06 08:07:38;;;;;;;9.85;3.15;;;;;;;-143.29;100.00;62188.47;5057885;28;20505;-94
2023/10/06 08:10:05;;;;;;;9.52;2.47;;;;;;;-143.29;100.00;62188.47;5055928;28;20025;-93
2023/10/06 08:12:33;;;;;;;7.55;2.72;;;;;;;-143.29;100.00;62188.47;5055072;28;20547;-94
2023/10/06 08:15:06;;;;;;;4.80;1.95;;;;;;;-143.29;100.00;62188.47;5068501;28;20028;-93
2023/10/06 08:17:31;;;;;;;9.65;2.25;;;;;;;-143.29;100.00;62188.47;5039904;28;20119;-91
2023/10/06 08:19:57;;;;;;;6.00;2.00;;;;;;;-143.29;100.00;62188.47;5039764;28;20099;-94
2023/10/06 08:22:25;;;;;;;9.00;2.38;;;;;;;-143.29;100.00;62188.47;5057638;28;20113;-92
2023/10/06 08:24:51;;;;;;;6.80;1.83;;;;;;;-143.29;100.00;62188.47;5039094;28;20029;-92
2023/10/06 08:27:21;;;;;;;8.60;2.90;;;;;;;-143.29;100.00;62188.47;5048898;28;20588;-92
2023/10/06 08:29:47;;;;;;;6.95;2.53;;;;;;;-143.29;100.00;62188.47;5057869;28;20039;-90
2023/10/06 08:32:12;;;;;;;3.42;1.75;;;;;;;-143.29;100.00;62188.47;5039626;28;20021;-92
2023/10/06 08:34:39;;;;;;;7.00;2.20;;;;;;;-143.29;100.00;62188.47;5057502;28;20435;-92
2023/10/06 08:37:10;;;;;;;9.55;2.55;;;;;;;-143.29;100.00;62188.47;5057771;28;20359;-93
2023/10/06 08:39:38;;;;;;;;;;;;;;;-143.29;100.00;62188.47;5039497;28;20025;-92
2023/10/06 08:42:09;;;;;;;6.03;1.80;;;;;;;-143.29;100.00;62188.47;5057325;28;19924;-93
2023/10/06 08:44:38;;;;;;;6.47;2.00;;;;;;;-143.29;100.00;62188.47;5057481;28;20104;-91
2023/10/06 08:47:06;;;;;;;6.72;1.77;;;;;;;-143.29;100.00;62188.47;5038823;28;20040;-91
2023/10/06 08:49:33;;;;;;;5.45;1.70;;;;;;;-143.29;100.00;62188.47;5056976;28;20116;-90
2023/10/06 08:51:59;;;;;;;5.22;2.10;;;;;;;-143.29;100.00;62188.47;5053521;28;20029;-90
2023/10/06 08:54:28;;;;;;;5.63;2.17;;;;;;;-143.29;100.00;62188.47;5053579;28;20033;-90
2023/10/06 08:56:53;;;;;;;10.25;1.80;;;;;;;-143.29;100.00;62188.47;5055078;28;20032;-91
2023/10/06 08:59:20;;;;;;;6.68;2.00;;;;;;;-143.29;100.00;62188.47;5036178;28;20467;-90
2023/10/06 09:01:45;;;;;;;4.03;1.67;;;;;;;-143.29;100.00;62188.47;5053317;28;20048;-90
2023/10/06 09:04:11;;;;;;;4.85;2.13;;;;;;;-143.29;100.00;62188.47;5035667;28;20060;-89
2023/10/06 09:07:12;;;;;;;4.60;1.90;;;;;;;-143.29;100.00;62188.47;5058263;28;20024;-90
2023/10/06 09:09:38;;;;;;;5.70;2.25;;;;;;;-143.29;100.00;62188.47;5047995;28;20021;-91
2023/10/06 09:12:04;;;;;;;8.95;2.33;;;;;;;-143.29;100.00;62188.47;5053182;28;20086;-90
2023/10/06 09:14:30;;;;;;;4.40;1.70;;;;;;;-143.29;100.00;62188.47;5042831;28;20025;-91
2023/10/06 09:17:01;;;;;;;6.50;1.90;;;;;;;-143.29;100.00;62188.47;5055753;28;20040;-89
2023/10/06 09:19:46;;;;;;;8.00;1.50;;;;;;;-143.29;100.00;62188.47;5055943;28;20043;-90
2023/10/06 09:22:11;;;;;;;9.13;2.03;;;;;;;-143.29;100.00;62188.47;5039241;28;20032;-92
2023/10/06 09:24:36;;;;;;;10.48;2.10;;;;;;;-143.29;100.00;62188.47;5073011;28;20025;-91
2023/10/06 09:27:21;;;;;;;6.03;1.77;;;;;;;-143.29;100.00;62188.47;5070918;28;20028;-92
2023/10/06 09:29:47;;;;;;;5.88;1.60;;;;;;;-143.29;100.00;62188.47;5047185;28;20052;-92
2023/10/06 09:32:20;;;;;;;8.07;2.83;;;;;;;-143.29;100.00;62188.47;5055694;28;20117;-92
2023/10/06 09:34:46;;;;;;;5.65;1.85;;;;;;;-143.29;100.00;62188.47;5055493;28;20110;-92
2023/10/06 09:37:20;;;;;;;4.97;1.42;;;;;;;-143.29;100.00;62188.47;5053616;28;20472;-92
2023/10/06 09:40:10;;;;;;;7.55;1.60;;;;;;;-143.29;100.00;62188.47;5034035;28;20044;-91
2023/10/06 09:42:36;;;;;;;7.88;2.00;;;;;;;-143.29;100.00;62188.47;5050935;28;20052;-89
2023/10/06 09:45:13;;;;;;;5.78;2.03;;;;;;;-143.29;100.00;62188.47;5059116;28;20080;-90
2023/10/06 09:47:45;;;;;;;6.10;1.52;;;;;;;-143.29;100.00;62188.47;5066808;28;20107;-90
2023/10/06 09:50:13;;;;;;;5.60;1.90;;;;;;;-143.29;100.00;62188.47;5053352;28;20039;-92
2023/10/06 09:52:42;;;;;;;4.28;1.33;;;;;;;-143.29;100.00;62188.47;5035440;28;20056;-90
2023/10/06 09:55:08;;;;;;;5.63;1.75;;;;;;;-143.29;100.00;62188.47;5034645;28;20029;-92
2023/10/06 09:57:35;;;;;;;6.15;1.80;;;;;;;-143.29;100.00;62188.47;5035615;28;20043;-92
2023/10/06 10:00:01;;;;;;;7.55;1.88;;;;;;;-143.29;100.00;62188.47;5060281;28;20379;-88
2023/10/06 10:02:30;;;;;;;8.55;1.83;;;;;;;-143.29;100.00;62188.47;5052923;28;20025;-89
2023/10/06 10:04:59;;;;;;;7.03;2.00;;;;;;;-143.29;100.00;62188.47;5052501;28;20024;-88
2023/10/06 10:07:28;;;;;;;3.25;1.77;;;;;;;-143.29;100.00;62188.47;5034982;28;20040;-89
2023/10/06 10:09:55;;;;;;;5.53;1.58;;;;;;;-143.29;100.00;62188.47;5051506;28;20025;-89
2023/10/06 10:12:52;;;;;;;7.57;1.52;;;;;;;-143.29;100.00;62188.47;5033838;28;20033;-88
2023/10/06 10:15:21;;;;;;;5.25;1.85;;;;;;;-143.29;100.00;62188.47;5065521;28;20356;-89
2023/10/06 10:18:05;;;;;;;4.18;1.63;;;;;;;-143.29;100.00;62188.47;5052570;28;20017;-89
2023/10/06 10:20:34;;;;;;;6.68;1.70;;;;;;;-143.29;100.00;62188.47;5052637;28;20381;-89
2023/10/06 10:23:01;;;;;;;7.25;2.90;;;;;;;-143.29;100.00;62188.47;5052203;28;20142;-90
2023/10/06 10:25:29;;;;;;;5.00;1.85;;;;;;;-143.29;100.00;62188.47;5033417;28;20025;-89
2023/10/06 10:28:17;;;;;;;5.47;2.03;;;;;;;-143.29;100.00;62188.47;5052166;28;20098;-91
2023/10/06 10:30:59;;;;;;;7.22;2.00;;;;;;;-143.29;100.00;62188.47;5064491;28;20036;-91
2023/10/06 10:33:33;;;;;;;5.95;1.98;;;;;;;-143.29;100.00;62188.47;5054431;28;20175;-90
2023/10/06 10:36:20;;;;;;;6.20;2.33;;;;;;;-143.29;100.00;62188.47;5043388;28;20437;-91
2023/10/06 10:38:56;;;;;;;4.40;1.73;;;;;;;-143.29;100.00;62188.47;5051600;28;20112;-90
2023/10/06 10:41:26;;;;;;;8.48;2.28;;;;;;;-143.29;100.00;62188.47;5051947;28;20035;-91
2023/10/06 10:43:51;;;;;;;6.57;2.45;;;;;;;-143.29;100.00;62188.47;5051393;28;20060;-91
2023/10/06 10:46:44;;;;;;;8.73;1.98;;;;;;;-143.29;100.00;62188.47;5052872;28;20064;-92
2023/10/06 10:49:11;;;;;;;6.82;1.73;;;;;;;-143.29;100.00;62188.47;5034311;28;20057;-91
2023/10/06 10:51:48;;;;;;;8.98;3.33;;;;;;;-143.29;100.00;62188.47;5052005;28;20021;-91
2023/10/06 10:54:18;;;;;;;11.00;1.70;;;;;;;-143.29;100.00;62188.47;5033731;28;20079;-93
2023/10/06 10:56:49;;;;;;;7.20;2.08;;;;;;;-143.29;100.00;62188.47;5033599;28;20040;-91
2023/10/06 10:59:16;;;;;;;9.65;3.03;;;;;;;-143.29;100.00;62188.47;5039143;28;20115;-93
2023/10/06 11:01:43;;;;;;;7.20;2.42;;;;;;;-143.29;100.00;62188.47;5053952;28;20119;-92
2023/10/06 11:06:38;;;;;;;4.80;1.35;;;;;;;-143.29;100.00;62188.47;5055811;28;20032;-90
2023/10/06 11:12:17;;;;;;;11.68;1.90;;;;;;;-143.29;100.00;62188.47;4990234;28;20467;-91
2023/10/06 11:14:43;;;;;;;2.70;1.35;;;;;;;-143.29;100.00;62188.47;4989284;28;20034;-91
2023/10/06 11:17:11;;;;;;;4.75;1.83;;;;;;;-143.29;100.00;62188.47;5005967;28;20037;-91
2023/10/06 11:19:38;;;;;;;7.35;2.40;;;;;;;-143.29;100.00;62188.47;5033716;28;20029;-90
2023/10/06 11:22:10;;;;;;;8.00;2.17;;;;;;;-143.29;100.00;62188.47;5051445;28;20471;-91
2023/10/06 11:24:36;;;;;;;6.55;1.75;;;;;;;-143.29;100.00;62188.47;5051478;28;20055;-94
2023/10/06 11:27:21;;;;;;;4.38;1.83;;;;;;;-143.29;100.00;62188.47;5033751;28;20029;-93
2023/10/06 11:29:47;;;;;;;5.68;1.70;;;;;;;-143.29;100.00;62188.47;5063562;28;20431;-94
2023/10/06 11:32:13;;;;;;;5.47;1.60;;;;;;;-143.29;100.00;62188.47;5071867;28;20025;-92